sensor_id;sensor_type;location;lat;lon;timestamp;pressure;altitude;pressure_sealevel;temperature;humidity
55066;BME280;40964;42.114;24.220;2024-03-07T00:01:58;97770.66;;;7.64;100.00
55066;BME280;40964;42.114;24.220;2024-03-07T00:04:24;97766.94;;;7.45;100.00
55066;BME280;40964;42.114;24.220;2024-03-07T00:06:50;97766.78;;;7.47;100.00
55066;BME280;40964;42.114;24.220;2024-03-07T00:09:15;97763.53;;;7.38;100.00
55066;BME280;40964;42.114;24.220;2024-03-07T00:11:41;97724.78;;;7.07;100.00
55066;BME280;40964;42.114;24.220;2024-03-07T00:14:07;97770.50;;;7.24;100.00
55066;BME280;40964;42.114;24.220;2024-03-07T00:16:33;97759.66;;;7.27;100.00
55066;BME280;40964;42.114;24.220;2024-03-07T00:18:59;97754.78;;;7.11;100.00
55066;BME280;40964;42.114;24.220;2024-03-07T00:21:26;97770.28;;;7.13;100.00
55066;BME280;40964;42.114;24.220;2024-03-07T00:23:51;97776.34;;;7.20;100.00
55066;BME280;40964;42.114;24.220;2024-03-07T00:26:16;97772.91;;;7.19;100.00
55066;BME280;40964;42.114;24.220;2024-03-07T00:28:42;97774.09;;;7.10;100.00
55066;BME280;40964;42.114;24.220;2024-03-07T00:31:07;97759.97;;;7.04;100.00
55066;BME280;40964;42.114;24.220;2024-03-07T00:33:34;97775.22;;;7.01;100.00
55066;BME280;40964;42.114;24.220;2024-03-07T00:35:59;97765.13;;;6.85;100.00
55066;BME280;40964;42.114;24.220;2024-03-07T00:38:25;97764.06;;;6.79;100.00
55066;BME280;40964;42.114;24.220;2024-03-07T00:40:51;97770.09;;;6.79;100.00
55066;BME280;40964;42.114;24.220;2024-03-07T00:43:16;97768.69;;;6.77;100.00
55066;BME280;40964;42.114;24.220;2024-03-07T00:45:42;97767.63;;;6.71;100.00
55066;BME280;40964;42.114;24.220;2024-03-07T00:48:07;97767.44;;;6.73;100.00
55066;BME280;40964;42.114;24.220;2024-03-07T00:50:33;97764.47;;;6.76;100.00
55066;BME280;40964;42.114;24.220;2024-03-07T00:52:58;97760.66;;;6.78;100.00
55066;BME280;40964;42.114;24.220;2024-03-07T00:55:24;97766.84;;;6.71;100.00
55066;BME280;40964;42.114;24.220;2024-03-07T00:57:50;97760.34;;;6.60;100.00
55066;BME280;40964;42.114;24.220;2024-03-07T01:00:16;97760.94;;;6.62;100.00
55066;BME280;40964;42.114;24.220;2024-03-07T01:02:45;97759.03;;;6.77;100.00
55066;BME280;40964;42.114;24.220;2024-03-07T01:05:12;97759.84;;;6.78;100.00
55066;BME280;40964;42.114;24.220;2024-03-07T01:07:42;97755.41;;;6.78;100.00
55066;BME280;40964;42.114;24.220;2024-03-07T01:10:09;97747.00;;;6.83;100.00
55066;BME280;40964;42.114;24.220;2024-03-07T01:12:35;97757.13;;;6.93;100.00
55066;BME280;40964;42.114;24.220;2024-03-07T01:15:00;97757.13;;;6.93;100.00
55066;BME280;40964;42.114;24.220;2024-03-07T01:17:26;97761.53;;;6.92;100.00
55066;BME280;40964;42.114;24.220;2024-03-07T01:19:52;97753.50;;;7.00;100.00
55066;BME280;40964;42.114;24.220;2024-03-07T01:22:17;97737.38;;;6.83;100.00
55066;BME280;40964;42.114;24.220;2024-03-07T01:24:43;97749.06;;;7.01;100.00
55066;BME280;40964;42.114;24.220;2024-03-07T01:27:08;97748.72;;;7.04;100.00
55066;BME280;40964;42.114;24.220;2024-03-07T01:29:34;97751.94;;;7.06;100.00
55066;BME280;40964;42.114;24.220;2024-03-07T01:32:01;97738.22;;;6.97;100.00
55066;BME280;40964;42.114;24.220;2024-03-07T01:34:28;97751.13;;;7.05;100.00
55066;BME280;40964;42.114;24.220;2024-03-07T01:36:54;97745.66;;;7.00;100.00
55066;BME280;40964;42.114;24.220;2024-03-07T01:39:19;97747.31;;;7.01;100.00
55066;BME280;40964;42.114;24.220;2024-03-07T01:41:44;97752.84;;;6.92;100.00
55066;BME280;40964;42.114;24.220;2024-03-07T01:44:10;97742.97;;;6.80;100.00
55066;BME280;40964;42.114;24.220;2024-03-07T01:46:35;97746.53;;;6.73;100.00
55066;BME280;40964;42.114;24.220;2024-03-07T01:49:01;97739.09;;;6.70;100.00
55066;BME280;40964;42.114;24.220;2024-03-07T01:51:27;97746.88;;;6.63;100.00
55066;BME280;40964;42.114;24.220;2024-03-07T01:53:53;97743.66;;;6.61;100.00
55066;BME280;40964;42.114;24.220;2024-03-07T01:56:19;97729.88;;;6.46;100.00
55066;BME280;40964;42.114;24.220;2024-03-07T01:58:46;97741.59;;;6.50;100.00
55066;BME280;40964;42.114;24.220;2024-03-07T02:01:12;97746.75;;;6.43;100.00
55066;BME280;40964;42.114;24.220;2024-03-07T02:03:39;97724.00;;;6.37;100.00
55066;BME280;40964;42.114;24.220;2024-03-07T02:06:05;97731.63;;;6.32;100.00
55066;BME280;40964;42.114;24.220;2024-03-07T02:08:31;97743.69;;;6.33;100.00
55066;BME280;40964;42.114;24.220;2024-03-07T02:10:58;97733.97;;;6.20;100.00
55066;BME280;40964;42.114;24.220;2024-03-07T02:13:23;97747.50;;;6.31;100.00
55066;BME280;40964;42.114;24.220;2024-03-07T02:15:49;97739.19;;;6.20;100.00
55066;BME280;40964;42.114;24.220;2024-03-07T02:18:14;97750.25;;;6.22;100.00
55066;BME280;40964;42.114;24.220;2024-03-07T02:20:46;97745.03;;;6.22;100.00
55066;BME280;40964;42.114;24.220;2024-03-07T02:23:12;97742.22;;;6.24;100.00
55066;BME280;40964;42.114;24.220;2024-03-07T02:25:38;97745.78;;;6.16;100.00
55066;BME280;40964;42.114;24.220;2024-03-07T02:28:06;97736.56;;;6.20;100.00
55066;BME280;40964;42.114;24.220;2024-03-07T02:30:32;97739.94;;;6.14;100.00
55066;BME280;40964;42.114;24.220;2024-03-07T02:32:59;97724.06;;;6.16;100.00
55066;BME280;40964;42.114;24.220;2024-03-07T02:35:34;97740.53;;;6.16;100.00
55066;BME280;40964;42.114;24.220;2024-03-07T02:38:02;97746.50;;;6.10;100.00
55066;BME280;40964;42.114;24.220;2024-03-07T02:40:28;97746.56;;;6.17;100.00
55066;BME280;40964;42.114;24.220;2024-03-07T02:42:54;97748.97;;;6.12;100.00
55066;BME280;40964;42.114;24.220;2024-03-07T02:45:19;97748.97;;;6.12;100.00
55066;BME280;40964;42.114;24.220;2024-03-07T02:47:45;97747.09;;;6.06;100.00
55066;BME280;40964;42.114;24.220;2024-03-07T02:50:10;97756.34;;;6.08;100.00
55066;BME280;40964;42.114;24.220;2024-03-07T02:52:36;97749.31;;;6.09;100.00
55066;BME280;40964;42.114;24.220;2024-03-07T02:55:03;97733.25;;;6.05;100.00
55066;BME280;40964;42.114;24.220;2024-03-07T02:57:30;97745.28;;;6.06;100.00
55066;BME280;40964;42.114;24.220;2024-03-07T02:59:56;97751.50;;;6.05;100.00
55066;BME280;40964;42.114;24.220;2024-03-07T03:02:22;97744.09;;;6.09;100.00
55066;BME280;40964;42.114;24.220;2024-03-07T03:04:47;97749.50;;;6.07;100.00
55066;BME280;40964;42.114;24.220;2024-03-07T03:07:13;97730.50;;;5.92;100.00
55066;BME280;40964;42.114;24.220;2024-03-07T03:09:38;97748.50;;;6.08;100.00
55066;BME280;40964;42.114;24.220;2024-03-07T03:12:09;97750.50;;;6.06;100.00
55066;BME280;40964;42.114;24.220;2024-03-07T03:14:34;97756.53;;;6.07;100.00
55066;BME280;40964;42.114;24.220;2024-03-07T03:17:00;97762.16;;;6.04;100.00
55066;BME280;40964;42.114;24.220;2024-03-07T03:19:25;97766.56;;;6.03;100.00
55066;BME280;40964;42.114;24.220;2024-03-07T03:21:52;97756.84;;;5.97;100.00
55066;BME280;40964;42.114;24.220;2024-03-07T03:24:18;97754.25;;;5.97;100.00
55066;BME280;40964;42.114;24.220;2024-03-07T03:26:44;97748.03;;;5.98;100.00
55066;BME280;40964;42.114;24.220;2024-03-07T03:29:09;97760.97;;;6.06;100.00
55066;BME280;40964;42.114;24.220;2024-03-07T03:31:37;97760.69;;;6.01;100.00
55066;BME280;40964;42.114;24.220;2024-03-07T03:34:02;97750.13;;;5.88;100.00
55066;BME280;40964;42.114;24.220;2024-03-07T03:36:28;97766.03;;;5.93;100.00
55066;BME280;40964;42.114;24.220;2024-03-07T03:38:54;97773.53;;;5.96;100.00
55066;BME280;40964;42.114;24.220;2024-03-07T03:41:20;97759.75;;;5.87;100.00
55066;BME280;40964;42.114;24.220;2024-03-07T03:43:45;97754.53;;;5.87;100.00
55066;BME280;40964;42.114;24.220;2024-03-07T03:46:12;97763.69;;;5.98;100.00
55066;BME280;40964;42.114;24.220;2024-03-07T03:48:41;97763.50;;;6.00;100.00
55066;BME280;40964;42.114;24.220;2024-03-07T03:51:10;97766.03;;;5.93;100.00
55066;BME280;40964;42.114;24.220;2024-03-07T03:53:38;97749.63;;;5.78;100.00
55066;BME280;40964;42.114;24.220;2024-03-07T03:56:04;97771.25;;;5.93;100.00
55066;BME280;40964;42.114;24.220;2024-03-07T03:58:32;97774.00;;;5.85;100.00
55066;BME280;40964;42.114;24.220;2024-03-07T04:00:57;97779.56;;;5.82;100.00
55066;BME280;40964;42.114;24.220;2024-03-07T04:03:26;97770.00;;;5.67;100.00
55066;BME280;40964;42.114;24.220;2024-03-07T04:05:52;97768.81;;;5.70;100.00
55066;BME280;40964;42.114;24.220;2024-03-07T04:08:17;97774.22;;;5.68;100.00
55066;BME280;40964;42.114;24.220;2024-03-07T04:10:45;97774.59;;;5.65;100.00
55066;BME280;40964;42.114;24.220;2024-03-07T04:13:10;97782.59;;;5.64;100.00
55066;BME280;40964;42.114;24.220;2024-03-07T04:15:36;97767.19;;;5.48;100.00
55066;BME280;40964;42.114;24.220;2024-03-07T04:18:01;97779.94;;;5.57;100.00
55066;BME280;40964;42.114;24.220;2024-03-07T04:20:27;97788.13;;;5.54;100.00
55066;BME280;40964;42.114;24.220;2024-03-07T04:22:52;97797.75;;;5.54;100.00
55066;BME280;40964;42.114;24.220;2024-03-07T04:25:18;97792.22;;;5.42;100.00
55066;BME280;40964;42.114;24.220;2024-03-07T04:27:43;97795.16;;;5.39;100.00
55066;BME280;40964;42.114;24.220;2024-03-07T04:30:09;97777.84;;;5.31;100.00
55066;BME280;40964;42.114;24.220;2024-03-07T04:32:36;97779.47;;;5.32;100.00
55066;BME280;40964;42.114;24.220;2024-03-07T04:35:06;97785.03;;;5.29;100.00
55066;BME280;40964;42.114;24.220;2024-03-07T04:37:33;97777.41;;;5.28;100.00
55066;BME280;40964;42.114;24.220;2024-03-07T04:40:04;97787.28;;;5.32;100.00
55066;BME280;40964;42.114;24.220;2024-03-07T04:42:29;97792.03;;;5.29;100.00
55066;BME280;40964;42.114;24.220;2024-03-07T04:44:55;97739.78;;;5.01;100.00
55066;BME280;40964;42.114;24.220;2024-03-07T04:47:21;97769.56;;;5.28;100.00
55066;BME280;40964;42.114;24.220;2024-03-07T04:49:47;97791.69;;;5.32;100.00
55066;BME280;40964;42.114;24.220;2024-03-07T04:52:12;97795.16;;;5.39;100.00
55066;BME280;40964;42.114;24.220;2024-03-07T04:54:38;97789.59;;;5.42;100.00
55066;BME280;40964;42.114;24.220;2024-03-07T04:57:03;97773.44;;;5.32;100.00
55066;BME280;40964;42.114;24.220;2024-03-07T04:59:29;97799.56;;;5.38;100.00
55066;BME280;40964;42.114;24.220;2024-03-07T05:01:54;97800.66;;;5.44;100.00
55066;BME280;40964;42.114;24.220;2024-03-07T05:04:20;97798.47;;;5.48;100.00
55066;BME280;40964;42.114;24.220;2024-03-07T05:06:45;97796.50;;;5.50;100.00
55066;BME280;40964;42.114;24.220;2024-03-07T05:09:13;97809.50;;;5.64;100.00
55066;BME280;40964;42.114;24.220;2024-03-07T05:11:49;97807.75;;;5.50;100.00
55066;BME280;40964;42.114;24.220;2024-03-07T05:14:16;97814.22;;;5.54;100.00
55066;BME280;40964;42.114;24.220;2024-03-07T05:16:42;97794.19;;;5.40;100.00
55066;BME280;40964;42.114;24.220;2024-03-07T05:19:08;97819.81;;;5.51;100.00
55066;BME280;40964;42.114;24.220;2024-03-07T05:21:34;97812.50;;;5.47;100.00
55066;BME280;40964;42.114;24.220;2024-03-07T05:24:04;97815.78;;;5.49;100.00
55066;BME280;40964;42.114;24.220;2024-03-07T05:26:31;97823.50;;;5.42;100.00
55066;BME280;40964;42.114;24.220;2024-03-07T05:29:03;97824.50;;;5.41;100.00
55066;BME280;40964;42.114;24.220;2024-03-07T05:31:42;97812.28;;;5.27;100.00
55066;BME280;40964;42.114;24.220;2024-03-07T05:34:14;97822.72;;;5.27;100.00
55066;BME280;40964;42.114;24.220;2024-03-07T05:36:40;97823.72;;;5.26;100.00
55066;BME280;40964;42.114;24.220;2024-03-07T05:39:10;97831.53;;;5.26;100.00
55066;BME280;40964;42.114;24.220;2024-03-07T05:41:39;97833.50;;;5.24;100.00
55066;BME280;40964;42.114;24.220;2024-03-07T05:44:06;97830.91;;;5.24;100.00
55066;BME280;40964;42.114;24.220;2024-03-07T05:46:43;97839.63;;;5.16;100.00
55066;BME280;40964;42.114;24.220;2024-03-07T05:49:14;97842.94;;;5.10;100.00
55066;BME280;40964;42.114;24.220;2024-03-07T05:51:40;97843.69;;;5.04;100.00
55066;BME280;40964;42.114;24.220;2024-03-07T05:54:07;97829.47;;;4.92;100.00
55066;BME280;40964;42.114;24.220;2024-03-07T05:56:35;97843.03;;;5.02;100.00
55066;BME280;40964;42.114;24.220;2024-03-07T05:59:04;97823.91;;;4.80;100.00
55066;BME280;40964;42.114;24.220;2024-03-07T06:01:36;97849.13;;;4.94;100.00
55066;BME280;40964;42.114;24.220;2024-03-07T06:04:03;97853.66;;;5.00;100.00
55066;BME280;40964;42.114;24.220;2024-03-07T06:06:31;97844.31;;;5.06;100.00
55066;BME280;40964;42.114;24.220;2024-03-07T06:09:06;97847.53;;;5.08;100.00
55066;BME280;40964;42.114;24.220;2024-03-07T06:11:39;97843.41;;;5.13;100.00
55066;BME280;40964;42.114;24.220;2024-03-07T06:14:08;97855.09;;;5.18;100.00
55066;BME280;40964;42.114;24.220;2024-03-07T06:16:37;97860.84;;;5.28;100.00
55066;BME280;40964;42.114;24.220;2024-03-07T06:19:04;97855.09;;;5.18;100.00
55066;BME280;40964;42.114;24.220;2024-03-07T06:21:32;97849.34;;;5.22;100.00
55066;BME280;40964;42.114;24.220;2024-03-07T06:23:59;97846.81;;;5.29;100.00
55066;BME280;40964;42.114;24.220;2024-03-07T06:26:29;97848.34;;;5.23;100.00
55066;BME280;40964;42.114;24.220;2024-03-07T06:29:09;97853.91;;;5.20;100.00
55066;BME280;40964;42.114;24.220;2024-03-07T06:31:37;97851.41;;;5.27;100.00
55066;BME280;40964;42.114;24.220;2024-03-07T06:34:03;97856.13;;;5.38;100.00
55066;BME280;40964;42.114;24.220;2024-03-07T06:36:28;97849.31;;;5.37;100.00
55066;BME280;40964;42.114;24.220;2024-03-07T06:38:54;97844.84;;;5.31;100.00
55066;BME280;40964;42.114;24.220;2024-03-07T06:41:19;97844.09;;;5.37;100.00
55066;BME280;40964;42.114;24.220;2024-03-07T06:43:45;97851.19;;;5.43;100.00
55066;BME280;40964;42.114;24.220;2024-03-07T06:46:11;97845.41;;;5.48;100.00
55066;BME280;40964;42.114;24.220;2024-03-07T06:48:38;97841.38;;;5.45;100.00
55066;BME280;40964;42.114;24.220;2024-03-07T06:51:05;97841.81;;;5.63;100.00
55066;BME280;40964;42.114;24.220;2024-03-07T06:53:31;97848.81;;;5.63;100.00
55066;BME280;40964;42.114;24.220;2024-03-07T06:55:56;97848.28;;;5.67;100.00
55066;BME280;40964;42.114;24.220;2024-03-07T06:58:22;97845.16;;;5.57;100.00
55066;BME280;40964;42.114;24.220;2024-03-07T07:00:48;97852.09;;;5.50;100.00
55066;BME280;40964;42.114;24.220;2024-03-07T07:03:17;97857.94;;;5.52;100.00
55066;BME280;40964;42.114;24.220;2024-03-07T07:05:44;97852.16;;;5.57;100.00
55066;BME280;40964;42.114;24.220;2024-03-07T07:08:10;97846.50;;;5.53;100.00
55066;BME280;40964;42.114;24.220;2024-03-07T07:10:36;97850.72;;;5.69;100.00
55066;BME280;40964;42.114;24.220;2024-03-07T07:13:02;97859.03;;;5.79;100.00
55066;BME280;40964;42.114;24.220;2024-03-07T07:15:29;97859.03;;;5.79;100.00
55066;BME280;40964;42.114;24.220;2024-03-07T07:17:55;97853.03;;;5.79;100.00
55066;BME280;40964;42.114;24.220;2024-03-07T07:20:21;97862.13;;;5.68;100.00
55066;BME280;40964;42.114;24.220;2024-03-07T07:22:49;97865.97;;;5.72;100.00
55066;BME280;40964;42.114;24.220;2024-03-07T07:25:15;97862.19;;;5.75;100.00
55066;BME280;40964;42.114;24.220;2024-03-07T07:27:50;97856.00;;;5.76;100.00
55066;BME280;40964;42.114;24.220;2024-03-07T07:30:22;97860.56;;;5.74;100.00
55066;BME280;40964;42.114;24.220;2024-03-07T07:32:49;97866.16;;;5.70;100.00
55066;BME280;40964;42.114;24.220;2024-03-07T07:35:15;97872.56;;;5.68;100.00
55066;BME280;40964;42.114;24.220;2024-03-07T07:37:41;97873.00;;;5.72;100.00
55066;BME280;40964;42.114;24.220;2024-03-07T07:40:08;97878.50;;;5.62;100.00
55066;BME280;40964;42.114;24.220;2024-03-07T07:42:35;97879.13;;;5.64;100.00
55066;BME280;40964;42.114;24.220;2024-03-07T07:45:08;97872.88;;;5.58;100.00
55066;BME280;40964;42.114;24.220;2024-03-07T07:47:38;97888.03;;;5.69;100.00
55066;BME280;40964;42.114;24.220;2024-03-07T07:50:07;97893.25;;;5.69;100.00
55066;BME280;40964;42.114;24.220;2024-03-07T07:52:40;97893.63;;;5.66;100.00
55066;BME280;40964;42.114;24.220;2024-03-07T07:55:07;97889.03;;;5.68;100.00
55066;BME280;40964;42.114;24.220;2024-03-07T07:57:40;97887.66;;;5.73;100.00
55066;BME280;40964;42.114;24.220;2024-03-07T08:00:07;97893.66;;;5.88;100.00
55066;BME280;40964;42.114;24.220;2024-03-07T08:02:35;97893.84;;;6.01;100.00
55066;BME280;40964;42.114;24.220;2024-03-07T08:05:00;97887.50;;;6.10;100.00
55066;BME280;40964;42.114;24.220;2024-03-07T08:07:26;97895.09;;;6.05;100.00
55066;BME280;40964;42.114;24.220;2024-03-07T08:09:51;97904.72;;;6.05;100.00
55066;BME280;40964;42.114;24.220;2024-03-07T08:12:17;97903.72;;;6.06;100.00
55066;BME280;40964;42.114;24.220;2024-03-07T08:14:42;97909.34;;;6.03;100.00
55066;BME280;40964;42.114;24.220;2024-03-07T08:17:10;97917.44;;;5.93;100.00
55066;BME280;40964;42.114;24.220;2024-03-07T08:19:36;97917.09;;;5.96;100.00
55066;BME280;40964;42.114;24.220;2024-03-07T08:22:01;97921.75;;;5.86;100.00
55066;BME280;40964;42.114;24.220;2024-03-07T08:24:27;97928.78;;;5.70;100.00
55066;BME280;40964;42.114;24.220;2024-03-07T08:26:53;97931.31;;;5.64;100.00
55066;BME280;40964;42.114;24.220;2024-03-07T08:29:18;97933.50;;;5.60;100.00
55066;BME280;40964;42.114;24.220;2024-03-07T08:31:44;97935.63;;;5.72;100.00
55066;BME280;40964;42.114;24.220;2024-03-07T08:34:09;97935.63;;;5.72;100.00
55066;BME280;40964;42.114;24.220;2024-03-07T08:36:35;97933.13;;;5.63;100.00
55066;BME280;40964;42.114;24.220;2024-03-07T08:39:01;97933.38;;;5.68;100.00
55066;BME280;40964;42.114;24.220;2024-03-07T08:41:29;97941.13;;;5.77;100.00
55066;BME280;40964;42.114;24.220;2024-03-07T08:43:56;97940.13;;;5.78;100.00
55066;BME280;40964;42.114;24.220;2024-03-07T08:46:22;97937.44;;;5.71;100.00
55066;BME280;40964;42.114;24.220;2024-03-07T08:48:47;97945.44;;;5.69;100.00
55066;BME280;40964;42.114;24.220;2024-03-07T08:51:15;97942.03;;;5.69;100.00
55066;BME280;40964;42.114;24.220;2024-03-07T08:53:41;97939.94;;;5.64;100.00
55066;BME280;40964;42.114;24.220;2024-03-07T08:56:06;97944.88;;;5.74;100.00
55066;BME280;40964;42.114;24.220;2024-03-07T08:58:32;97945.59;;;5.83;100.00
55066;BME280;40964;42.114;24.220;2024-03-07T09:00:57;97956.69;;;5.85;100.00
55066;BME280;40964;42.114;24.220;2024-03-07T09:03:24;97964.41;;;5.78;100.00
55066;BME280;40964;42.114;24.220;2024-03-07T09:05:51;97967.84;;;5.79;100.00
55066;BME280;40964;42.114;24.220;2024-03-07T09:08:17;97960.25;;;5.84;100.00
55066;BME280;40964;42.114;24.220;2024-03-07T09:10:42;97963.25;;;5.81;100.00
55066;BME280;40964;42.114;24.220;2024-03-07T09:13:08;97956.13;;;5.89;100.00
55066;BME280;40964;42.114;24.220;2024-03-07T09:15:34;97960.03;;;5.93;100.00
55066;BME280;40964;42.114;24.220;2024-03-07T09:18:01;97959.03;;;5.94;100.00
55066;BME280;40964;42.114;24.220;2024-03-07T09:20:28;97958.84;;;5.96;100.00
55066;BME280;40964;42.114;24.220;2024-03-07T09:22:54;97958.38;;;5.92;100.00
55066;BME280;40964;42.114;24.220;2024-03-07T09:25:41;97958.47;;;5.99;100.00
55066;BME280;40964;42.114;24.220;2024-03-07T09:28:08;97944.72;;;5.90;100.00
55066;BME280;40964;42.114;24.220;2024-03-07T09:30:33;97962.81;;;5.92;100.00
55066;BME280;40964;42.114;24.220;2024-03-07T09:33:00;97963.41;;;6.09;100.00
55066;BME280;40964;42.114;24.220;2024-03-07T09:35:26;97970.59;;;6.21;100.00
55066;BME280;40964;42.114;24.220;2024-03-07T09:37:52;97970.84;;;6.26;100.00
55066;BME280;40964;42.114;24.220;2024-03-07T09:40:18;97976.13;;;6.33;100.00
55066;BME280;40964;42.114;24.220;2024-03-07T09:42:47;97966.56;;;6.40;100.00
55066;BME280;40964;42.114;24.220;2024-03-07T09:45:22;97968.38;;;6.61;100.00
55066;BME280;40964;42.114;24.220;2024-03-07T09:47:53;97960.47;;;6.76;100.00
55066;BME280;40964;42.114;24.220;2024-03-07T09:50:20;97951.06;;;6.81;100.00
55066;BME280;40964;42.114;24.220;2024-03-07T09:52:49;97964.25;;;6.95;100.00
55066;BME280;40964;42.114;24.220;2024-03-07T09:55:16;97970.91;;;6.97;100.00
55066;BME280;40964;42.114;24.220;2024-03-07T09:57:42;97958.66;;;6.98;100.00
55066;BME280;40964;42.114;24.220;2024-03-07T10:00:09;97956.75;;;7.13;100.00
55066;BME280;40964;42.114;24.220;2024-03-07T10:02:44;97961.84;;;7.21;100.00
55066;BME280;40964;42.114;24.220;2024-03-07T10:05:14;97968.78;;;7.07;100.00
55066;BME280;40964;42.114;24.220;2024-03-07T10:07:41;97974.94;;;7.00;100.00
55066;BME280;40964;42.114;24.220;2024-03-07T10:10:07;97956.06;;;6.76;100.00
55066;BME280;40964;42.114;24.220;2024-03-07T10:12:37;97951.97;;;6.67;100.00
55066;BME280;40964;42.114;24.220;2024-03-07T10:15:04;97962.94;;;6.56;100.00
55066;BME280;40964;42.114;24.220;2024-03-07T10:17:35;97942.25;;;6.61;100.00
55066;BME280;40964;42.114;24.220;2024-03-07T10:20:02;97962.16;;;6.83;100.00
55066;BME280;40964;42.114;24.220;2024-03-07T10:22:27;97961.66;;;6.95;100.00
55066;BME280;40964;42.114;24.220;2024-03-07T10:24:55;97954.09;;;7.06;100.00
55066;BME280;40964;42.114;24.220;2024-03-07T10:27:20;97956.50;;;7.08;100.00
55066;BME280;40964;42.114;24.220;2024-03-07T10:29:51;97906.88;;;6.87;100.00
55066;BME280;40964;42.114;24.220;2024-03-07T10:32:21;97946.84;;;7.08;100.00
55066;BME280;40964;42.114;24.220;2024-03-07T10:34:47;97948.66;;;7.08;100.00
55066;BME280;40964;42.114;24.220;2024-03-07T10:37:14;97946.69;;;7.10;100.00
55066;BME280;40964;42.114;24.220;2024-03-07T10:39:44;97927.00;;;7.14;100.00
55066;BME280;40964;42.114;24.220;2024-03-07T10:42:13;97927.84;;;7.21;100.00
55066;BME280;40964;42.114;24.220;2024-03-07T10:44:46;97928.22;;;7.18;100.00
55066;BME280;40964;42.114;24.220;2024-03-07T10:47:17;97891.00;;;6.60;100.00
55066;BME280;40964;42.114;24.220;2024-03-07T10:52:38;97875.56;;;6.65;100.00
55066;BME280;40964;42.114;24.220;2024-03-07T10:55:40;97927.00;;;7.14;100.00
55066;BME280;40964;42.114;24.220;2024-03-07T10:58:17;97924.28;;;7.29;100.00
55066;BME280;40964;42.114;24.220;2024-03-07T11:00:47;97920.06;;;7.34;100.00
55066;BME280;40964;42.114;24.220;2024-03-07T11:03:13;97921.06;;;7.33;100.00
55066;BME280;40964;42.114;24.220;2024-03-07T11:05:40;97922.47;;;7.29;100.00
55066;BME280;40964;42.114;24.220;2024-03-07T11:08:09;97912.38;;;6.98;100.00
55066;BME280;40964;42.114;24.220;2024-03-07T11:10:38;97897.16;;;7.02;100.00
55066;BME280;40964;42.114;24.220;2024-03-07T11:13:06;97901.22;;;7.11;100.00
55066;BME280;40964;42.114;24.220;2024-03-07T11:15:33;97900.19;;;7.05;100.00
55066;BME280;40964;42.114;24.220;2024-03-07T11:17:59;97910.16;;;7.23;100.00
55066;BME280;40964;42.114;24.220;2024-03-07T11:20:26;97917.09;;;7.37;100.00
55066;BME280;40964;42.114;24.220;2024-03-07T11:22:52;97890.97;;;7.16;100.00
55066;BME280;40964;42.114;24.220;2024-03-07T11:25:22;97910.44;;;7.07;100.00
55066;BME280;40964;42.114;24.220;2024-03-07T11:27:59;97901.25;;;7.18;100.00
55066;BME280;40964;42.114;24.220;2024-03-07T11:30:24;97897.31;;;7.35;100.00
55066;BME280;40964;42.114;24.220;2024-03-07T11:32:53;97886.94;;;7.55;100.00
55066;BME280;40964;42.114;24.220;2024-03-07T11:35:20;97876.84;;;7.45;100.00
55066;BME280;40964;42.114;24.220;2024-03-07T11:37:56;97884.59;;;7.66;100.00
55066;BME280;40964;42.114;24.220;2024-03-07T11:42:54;97882.66;;;7.88;100.00
55066;BME280;40964;42.114;24.220;2024-03-07T11:45:24;97889.03;;;7.66;100.00
55066;BME280;40964;42.114;24.220;2024-03-07T11:48:00;97891.84;;;7.71;100.00
55066;BME280;40964;42.114;24.220;2024-03-07T11:50:29;97880.84;;;7.82;100.00
55066;BME280;40964;42.114;24.220;2024-03-07T11:52:57;97881.28;;;7.92;100.00
55066;BME280;40964;42.114;24.220;2024-03-07T11:55:23;97881.47;;;7.97;100.00
55066;BME280;40964;42.114;24.220;2024-03-07T11:57:49;97860.56;;;8.04;100.00
55066;BME280;40964;42.114;24.220;2024-03-07T12:00:17;97871.66;;;8.13;100.00
55066;BME280;40964;42.114;24.220;2024-03-07T12:02:43;97871.88;;;8.31;100.00
55066;BME280;40964;42.114;24.220;2024-03-07T12:05:09;97866.81;;;8.23;100.00
55066;BME280;40964;42.114;24.220;2024-03-07T12:07:35;97868.03;;;8.14;100.00
55066;BME280;40964;42.114;24.220;2024-03-07T12:10:02;97869.03;;;8.13;100.00
55066;BME280;40964;42.114;24.220;2024-03-07T12:12:32;97863.00;;;8.12;100.00
55066;BME280;40964;42.114;24.220;2024-03-07T12:14:58;97857.16;;;8.23;100.00
55066;BME280;40964;42.114;24.220;2024-03-07T12:17:25;97861.38;;;8.24;100.00
55066;BME280;40964;42.114;24.220;2024-03-07T12:19:51;97866.06;;;8.42;100.00
55066;BME280;40964;42.114;24.220;2024-03-07T12:22:19;97865.69;;;8.39;100.00
55066;BME280;40964;42.114;24.220;2024-03-07T12:24:59;97839.81;;;8.03;100.00
55066;BME280;40964;42.114;24.220;2024-03-07T12:27:27;97859.38;;;8.20;100.00
55066;BME280;40964;42.114;24.220;2024-03-07T12:29:54;97865.06;;;8.37;100.00
55066;BME280;40964;42.114;24.220;2024-03-07T12:32:19;97848.56;;;8.36;100.00
55066;BME280;40964;42.114;24.220;2024-03-07T12:34:46;97859.63;;;8.38;100.00
55066;BME280;40964;42.114;24.220;2024-03-07T12:37:14;97837.78;;;8.05;100.00
55066;BME280;40964;42.114;24.220;2024-03-07T12:39:42;97858.75;;;8.11;100.00
55066;BME280;40964;42.114;24.220;2024-03-07T12:42:24;97855.72;;;8.08;100.00
55066;BME280;40964;42.114;24.220;2024-03-07T12:44:50;97858.19;;;8.29;100.00
55066;BME280;40964;42.114;24.220;2024-03-07T12:47:17;97860.38;;;8.19;100.00
55066;BME280;40964;42.114;24.220;2024-03-07T12:49:43;97862.00;;;8.20;100.00
55066;BME280;40964;42.114;24.220;2024-03-07T12:52:09;97858.97;;;8.30;100.00
55066;BME280;40964;42.114;24.220;2024-03-07T12:54:36;97860.56;;;8.11;100.00
55066;BME280;40964;42.114;24.220;2024-03-07T12:57:12;97854.91;;;8.07;100.00